sensor_id;sensor_type;location;lat;lon;timestamp;P1;durP1;ratioP1;P2;durP2;ratioP2
21822;SDS011;11074;48.596;9.238;2023-11-21T00:01:56;9.40;;;2.10;;
21822;SDS011;11074;48.596;9.238;2023-11-21T00:04:23;5.57;;;2.08;;
21822;SDS011;11074;48.596;9.238;2023-11-21T00:06:50;7.15;;;1.95;;
21822;SDS011;11074;48.596;9.238;2023-11-21T00:09:16;7.63;;;2.63;;
21822;SDS011;11074;48.596;9.238;2023-11-21T00:11:42;5.28;;;2.20;;
21822;SDS011;11074;48.596;9.238;2023-11-21T00:14:09;5.60;;;2.25;;
21822;SDS011;11074;48.596;9.238;2023-11-21T00:16:36;6.30;;;2.38;;
21822;SDS011;11074;48.596;9.238;2023-11-21T00:19:01;12.65;;;3.08;;
21822;SDS011;11074;48.596;9.238;2023-11-21T00:21:27;8.38;;;2.38;;
21822;SDS011;11074;48.596;9.238;2023-11-21T00:23:53;7.20;;;2.40;;
21822;SDS011;11074;48.596;9.238;2023-11-21T00:26:19;7.95;;;2.60;;
21822;SDS011;11074;48.596;9.238;2023-11-21T00:28:44;6.40;;;2.20;;
21822;SDS011;11074;48.596;9.238;2023-11-21T00:31:10;10.90;;;2.70;;
21822;SDS011;11074;48.596;9.238;2023-11-21T00:33:36;7.05;;;1.90;;
21822;SDS011;11074;48.596;9.238;2023-11-21T00:36:02;3.42;;;1.70;;
21822;SDS011;11074;48.596;9.238;2023-11-21T00:38:28;8.35;;;2.15;;
21822;SDS011;11074;48.596;9.238;2023-11-21T00:40:53;6.38;;;2.00;;
21822;SDS011;11074;48.596;9.238;2023-11-21T00:43:24;6.90;;;2.17;;
21822;SDS011;11074;48.596;9.238;2023-11-21T00:45:49;3.83;;;1.88;;
21822;SDS011;11074;48.596;9.238;2023-11-21T00:48:16;5.28;;;2.40;;
21822;SDS011;11074;48.596;9.238;2023-11-21T00:50:43;4.68;;;1.63;;
21822;SDS011;11074;48.596;9.238;2023-11-21T00:53:09;6.35;;;2.20;;
21822;SDS011;11074;48.596;9.238;2023-11-21T00:55:36;8.50;;;2.17;;
21822;SDS011;11074;48.596;9.238;2023-11-21T00:58:03;8.73;;;2.17;;
21822;SDS011;11074;48.596;9.238;2023-11-21T01:00:29;8.25;;;2.65;;
21822;SDS011;11074;48.596;9.238;2023-11-21T01:02:55;6.18;;;2.30;;
21822;SDS011;11074;48.596;9.238;2023-11-21T01:05:21;4.93;;;2.25;;
21822;SDS011;11074;48.596;9.238;2023-11-21T01:07:46;13.05;;;2.80;;
21822;SDS011;11074;48.596;9.238;2023-11-21T01:10:12;8.02;;;2.65;;
21822;SDS011;11074;48.596;9.238;2023-11-21T01:12:38;7.03;;;2.75;;
21822;SDS011;11074;48.596;9.238;2023-11-21T01:15:07;10.40;;;2.75;;
21822;SDS011;11074;48.596;9.238;2023-11-21T01:17:33;8.93;;;2.63;;
21822;SDS011;11074;48.596;9.238;2023-11-21T01:20:02;4.88;;;2.40;;
21822;SDS011;11074;48.596;9.238;2023-11-21T01:22:31;6.38;;;3.10;;
21822;SDS011;11074;48.596;9.238;2023-11-21T01:24:57;7.15;;;2.75;;
21822;SDS011;11074;48.596;9.238;2023-11-21T01:27:22;10.55;;;2.90;;
21822;SDS011;11074;48.596;9.238;2023-11-21T01:29:48;7.28;;;2.70;;
21822;SDS011;11074;48.596;9.238;2023-11-21T01:32:14;7.53;;;2.78;;
21822;SDS011;11074;48.596;9.238;2023-11-21T01:34:39;6.10;;;2.50;;
21822;SDS011;11074;48.596;9.238;2023-11-21T01:37:05;7.40;;;2.80;;
21822;SDS011;11074;48.596;9.238;2023-11-21T01:39:31;6.65;;;2.83;;
21822;SDS011;11074;48.596;9.238;2023-11-21T01:41:57;6.28;;;2.50;;
21822;SDS011;11074;48.596;9.238;2023-11-21T01:44:26;5.70;;;2.40;;
21822;SDS011;11074;48.596;9.238;2023-11-21T01:46:51;6.88;;;2.40;;
21822;SDS011;11074;48.596;9.238;2023-11-21T01:49:18;7.93;;;2.90;;
21822;SDS011;11074;48.596;9.238;2023-11-21T01:51:46;8.40;;;2.53;;
21822;SDS011;11074;48.596;9.238;2023-11-21T01:54:15;5.95;;;2.30;;
21822;SDS011;11074;48.596;9.238;2023-11-21T01:56:46;5.88;;;1.90;;
21822;SDS011;11074;48.596;9.238;2023-11-21T01:59:17;6.18;;;2.28;;
21822;SDS011;11074;48.596;9.238;2023-11-21T02:01:46;4.22;;;1.85;;
21822;SDS011;11074;48.596;9.238;2023-11-21T02:04:13;4.13;;;1.50;;
21822;SDS011;11074;48.596;9.238;2023-11-21T02:06:39;2.70;;;1.23;;
21822;SDS011;11074;48.596;9.238;2023-11-21T02:09:05;3.50;;;1.38;;
21822;SDS011;11074;48.596;9.238;2023-11-21T02:11:30;3.72;;;1.17;;
21822;SDS011;11074;48.596;9.238;2023-11-21T02:13:58;3.25;;;1.23;;
21822;SDS011;11074;48.596;9.238;2023-11-21T02:16:25;6.10;;;1.38;;
21822;SDS011;11074;48.596;9.238;2023-11-21T02:18:52;4.60;;;1.17;;
21822;SDS011;11074;48.596;9.238;2023-11-21T02:21:18;5.85;;;1.40;;
21822;SDS011;11074;48.596;9.238;2023-11-21T02:23:46;5.15;;;1.35;;
21822;SDS011;11074;48.596;9.238;2023-11-21T02:26:12;5.32;;;1.50;;
21822;SDS011;11074;48.596;9.238;2023-11-21T02:28:39;3.78;;;1.05;;
21822;SDS011;11074;48.596;9.238;2023-11-21T02:31:05;3.38;;;1.40;;
21822;SDS011;11074;48.596;9.238;2023-11-21T02:33:32;3.80;;;1.23;;
21822;SDS011;11074;48.596;9.238;2023-11-21T02:35:59;3.60;;;1.10;;
21822;SDS011;11074;48.596;9.238;2023-11-21T02:38:26;4.97;;;1.10;;
21822;SDS011;11074;48.596;9.238;2023-11-21T02:40:51;6.38;;;1.15;;
21822;SDS011;11074;48.596;9.238;2023-11-21T02:43:17;2.65;;;1.10;;
21822;SDS011;11074;48.596;9.238;2023-11-21T02:45:43;1.45;;;0.80;;
21822;SDS011;11074;48.596;9.238;2023-11-21T02:48:09;3.28;;;0.82;;
21822;SDS011;11074;48.596;9.238;2023-11-21T02:50:35;3.20;;;1.00;;
21822;SDS011;11074;48.596;9.238;2023-11-21T02:53:00;3.53;;;0.93;;
21822;SDS011;11074;48.596;9.238;2023-11-21T02:55:27;2.88;;;0.95;;
21822;SDS011;11074;48.596;9.238;2023-11-21T02:57:53;3.38;;;1.20;;
21822;SDS011;11074;48.596;9.238;2023-11-21T03:00:21;3.33;;;0.82;;
21822;SDS011;11074;48.596;9.238;2023-11-21T03:02:49;2.50;;;0.85;;
21822;SDS011;11074;48.596;9.238;2023-11-21T03:05:15;4.00;;;0.98;;
21822;SDS011;11074;48.596;9.238;2023-11-21T03:07:40;9.18;;;1.05;;
21822;SDS011;11074;48.596;9.238;2023-11-21T03:10:06;2.42;;;0.70;;
21822;SDS011;11074;48.596;9.238;2023-11-21T03:12:34;4.30;;;1.05;;
21822;SDS011;11074;48.596;9.238;2023-11-21T03:15:00;4.25;;;1.00;;
21822;SDS011;11074;48.596;9.238;2023-11-21T03:17:27;4.20;;;0.90;;
21822;SDS011;11074;48.596;9.238;2023-11-21T03:19:54;3.90;;;1.10;;
21822;SDS011;11074;48.596;9.238;2023-11-21T03:22:19;2.67;;;0.88;;
21822;SDS011;11074;48.596;9.238;2023-11-21T03:24:45;4.53;;;0.90;;
21822;SDS011;11074;48.596;9.238;2023-11-21T03:27:11;3.72;;;0.80;;
21822;SDS011;11074;48.596;9.238;2023-11-21T03:29:37;3.80;;;0.85;;
21822;SDS011;11074;48.596;9.238;2023-11-21T03:32:03;3.60;;;0.80;;
21822;SDS011;11074;48.596;9.238;2023-11-21T03:34:29;4.07;;;0.90;;
21822;SDS011;11074;48.596;9.238;2023-11-21T03:36:55;1.83;;;0.85;;
21822;SDS011;11074;48.596;9.238;2023-11-21T03:39:20;6.13;;;0.77;;
21822;SDS011;11074;48.596;9.238;2023-11-21T03:41:47;2.97;;;1.00;;
21822;SDS011;11074;48.596;9.238;2023-11-21T03:44:13;2.65;;;0.70;;
21822;SDS011;11074;48.596;9.238;2023-11-21T03:46:39;2.38;;;0.98;;
21822;SDS011;11074;48.596;9.238;2023-11-21T03:49:05;2.38;;;0.70;;
21822;SDS011;11074;48.596;9.238;2023-11-21T03:51:32;3.97;;;0.70;;
21822;SDS011;11074;48.596;9.238;2023-11-21T03:53:59;2.35;;;0.90;;
21822;SDS011;11074;48.596;9.238;2023-11-21T03:56:24;2.88;;;0.75;;
21822;SDS011;11074;48.596;9.238;2023-11-21T03:58:50;2.97;;;0.80;;
21822;SDS011;11074;48.596;9.238;2023-11-21T04:01:20;1.13;;;0.60;;
21822;SDS011;11074;48.596;9.238;2023-11-21T04:03:48;1.45;;;0.70;;
21822;SDS011;11074;48.596;9.238;2023-11-21T04:06:14;3.65;;;0.70;;
21822;SDS011;11074;48.596;9.238;2023-11-21T04:08:40;1.70;;;0.80;;
21822;SDS011;11074;48.596;9.238;2023-11-21T04:11:05;1.50;;;0.75;;
21822;SDS011;11074;48.596;9.238;2023-11-21T04:13:31;2.33;;;0.73;;
21822;SDS011;11074;48.596;9.238;2023-11-21T04:15:57;2.97;;;0.60;;
21822;SDS011;11074;48.596;9.238;2023-11-21T04:18:22;3.50;;;0.70;;
21822;SDS011;11074;48.596;9.238;2023-11-21T04:20:48;2.65;;;0.60;;
21822;SDS011;11074;48.596;9.238;2023-11-21T04:23:14;1.02;;;0.60;;
21822;SDS011;11074;48.596;9.238;2023-11-21T04:25:40;2.05;;;0.75;;
21822;SDS011;11074;48.596;9.238;2023-11-21T04:28:06;3.00;;;0.70;;
21822;SDS011;11074;48.596;9.238;2023-11-21T04:30:32;1.77;;;0.70;;
21822;SDS011;11074;48.596;9.238;2023-11-21T04:32:57;6.28;;;1.15;;
21822;SDS011;11074;48.596;9.238;2023-11-21T04:35:23;2.83;;;0.90;;
21822;SDS011;11074;48.596;9.238;2023-11-21T04:37:49;1.00;;;0.70;;
21822;SDS011;11074;48.596;9.238;2023-11-21T04:40:16;1.65;;;0.85;;
21822;SDS011;11074;48.596;9.238;2023-11-21T04:42:42;6.53;;;1.08;;
21822;SDS011;11074;48.596;9.238;2023-11-21T04:45:07;2.47;;;0.73;;
21822;SDS011;11074;48.596;9.238;2023-11-21T04:47:34;1.33;;;0.60;;
21822;SDS011;11074;48.596;9.238;2023-11-21T04:50:02;2.38;;;0.65;;
21822;SDS011;11074;48.596;9.238;2023-11-21T04:52:29;1.42;;;0.70;;
21822;SDS011;11074;48.596;9.238;2023-11-21T04:54:55;1.35;;;0.70;;
21822;SDS011;11074;48.596;9.238;2023-11-21T04:57:22;2.13;;;0.77;;
21822;SDS011;11074;48.596;9.238;2023-11-21T04:59:48;2.38;;;0.50;;
21822;SDS011;11074;48.596;9.238;2023-11-21T05:02:15;2.05;;;0.65;;
21822;SDS011;11074;48.596;9.238;2023-11-21T05:04:41;1.65;;;0.55;;
21822;SDS011;11074;48.596;9.238;2023-11-21T05:07:07;4.93;;;0.80;;
21822;SDS011;11074;48.596;9.238;2023-11-21T05:09:33;1.63;;;0.68;;
21822;SDS011;11074;48.596;9.238;2023-11-21T05:12:00;1.17;;;0.57;;
21822;SDS011;11074;48.596;9.238;2023-11-21T05:14:26;1.90;;;0.60;;
21822;SDS011;11074;48.596;9.238;2023-11-21T05:16:52;1.67;;;0.68;;
21822;SDS011;11074;48.596;9.238;2023-11-21T05:19:18;1.02;;;0.60;;
21822;SDS011;11074;48.596;9.238;2023-11-21T05:21:44;1.95;;;0.60;;
21822;SDS011;11074;48.596;9.238;2023-11-21T05:24:09;1.92;;;0.50;;
21822;SDS011;11074;48.596;9.238;2023-11-21T05:26:35;2.22;;;0.63;;
21822;SDS011;11074;48.596;9.238;2023-11-21T05:29:01;2.85;;;1.33;;
21822;SDS011;11074;48.596;9.238;2023-11-21T05:31:26;3.30;;;1.70;;
21822;SDS011;11074;48.596;9.238;2023-11-21T05:33:52;4.05;;;2.00;;
21822;SDS011;11074;48.596;9.238;2023-11-21T05:36:18;4.25;;;2.08;;
21822;SDS011;11074;48.596;9.238;2023-11-21T05:38:43;3.22;;;1.88;;
21822;SDS011;11074;48.596;9.238;2023-11-21T05:41:11;5.40;;;1.95;;
21822;SDS011;11074;48.596;9.238;2023-11-21T05:43:38;2.45;;;1.33;;
21822;SDS011;11074;48.596;9.238;2023-11-21T05:46:05;2.50;;;1.08;;
21822;SDS011;11074;48.596;9.238;2023-11-21T05:48:32;2.25;;;1.00;;
21822;SDS011;11074;48.596;9.238;2023-11-21T05:50:58;1.40;;;0.93;;
21822;SDS011;11074;48.596;9.238;2023-11-21T05:53:24;1.65;;;0.80;;
21822;SDS011;11074;48.596;9.238;2023-11-21T05:55:52;2.92;;;0.80;;
21822;SDS011;11074;48.596;9.238;2023-11-21T05:58:18;2.42;;;1.05;;
21822;SDS011;11074;48.596;9.238;2023-11-21T06:00:44;2.42;;;1.05;;
21822;SDS011;11074;48.596;9.238;2023-11-21T06:03:09;2.22;;;1.25;;
21822;SDS011;11074;48.596;9.238;2023-11-21T06:05:35;4.22;;;1.55;;
21822;SDS011;11074;48.596;9.238;2023-11-21T06:08:01;2.60;;;1.20;;
21822;SDS011;11074;48.596;9.238;2023-11-21T06:10:27;4.50;;;1.35;;
21822;SDS011;11074;48.596;9.238;2023-11-21T06:12:53;2.78;;;1.60;;
21822;SDS011;11074;48.596;9.238;2023-11-21T06:15:19;2.90;;;1.67;;
21822;SDS011;11074;48.596;9.238;2023-11-21T06:17:46;3.10;;;1.52;;
21822;SDS011;11074;48.596;9.238;2023-11-21T06:20:14;3.50;;;1.98;;
21822;SDS011;11074;48.596;9.238;2023-11-21T06:22:43;3.25;;;1.58;;
21822;SDS011;11074;48.596;9.238;2023-11-21T06:25:12;4.95;;;1.73;;
21822;SDS011;11074;48.596;9.238;2023-11-21T06:27:39;3.78;;;1.40;;
21822;SDS011;11074;48.596;9.238;2023-11-21T06:30:07;2.65;;;1.80;;
21822;SDS011;11074;48.596;9.238;2023-11-21T06:32:38;3.17;;;1.90;;
21822;SDS011;11074;48.596;9.238;2023-11-21T06:35:05;3.50;;;2.00;;
21822;SDS011;11074;48.596;9.238;2023-11-21T06:37:32;4.63;;;1.63;;
21822;SDS011;11074;48.596;9.238;2023-11-21T06:39:58;2.92;;;1.42;;
21822;SDS011;11074;48.596;9.238;2023-11-21T06:42:25;2.78;;;1.70;;
21822;SDS011;11074;48.596;9.238;2023-11-21T06:44:52;3.70;;;1.60;;
21822;SDS011;11074;48.596;9.238;2023-11-21T06:47:24;5.18;;;2.05;;
21822;SDS011;11074;48.596;9.238;2023-11-21T06:49:50;4.22;;;2.00;;
21822;SDS011;11074;48.596;9.238;2023-11-21T06:52:17;4.85;;;1.90;;
21822;SDS011;11074;48.596;9.238;2023-11-21T06:54:44;4.60;;;1.98;;
21822;SDS011;11074;48.596;9.238;2023-11-21T06:57:11;2.92;;;1.60;;
21822;SDS011;11074;48.596;9.238;2023-11-21T06:59:37;3.30;;;1.20;;
21822;SDS011;11074;48.596;9.238;2023-11-21T07:02:03;2.88;;;1.30;;
21822;SDS011;11074;48.596;9.238;2023-11-21T07:04:31;3.75;;;1.40;;
21822;SDS011;11074;48.596;9.238;2023-11-21T07:07:03;2.72;;;1.30;;
21822;SDS011;11074;48.596;9.238;2023-11-21T07:09:31;5.63;;;1.35;;
21822;SDS011;11074;48.596;9.238;2023-11-21T07:11:57;3.53;;;1.50;;
21822;SDS011;11074;48.596;9.238;2023-11-21T07:14:23;2.58;;;1.23;;
21822;SDS011;11074;48.596;9.238;2023-11-21T07:16:49;5.32;;;1.65;;
21822;SDS011;11074;48.596;9.238;2023-11-21T07:19:14;4.40;;;1.65;;
21822;SDS011;11074;48.596;9.238;2023-11-21T07:21:40;6.40;;;2.10;;
21822;SDS011;11074;48.596;9.238;2023-11-21T07:24:06;3.10;;;2.20;;
21822;SDS011;11074;48.596;9.238;2023-11-21T07:26:34;5.43;;;2.30;;
21822;SDS011;11074;48.596;9.238;2023-11-21T07:29:00;10.65;;;3.40;;
21822;SDS011;11074;48.596;9.238;2023-11-21T07:31:31;4.95;;;2.88;;
21822;SDS011;11074;48.596;9.238;2023-11-21T07:33:59;5.43;;;3.00;;
21822;SDS011;11074;48.596;9.238;2023-11-21T07:36:26;6.35;;;2.90;;
21822;SDS011;11074;48.596;9.238;2023-11-21T07:38:52;4.35;;;3.10;;
21822;SDS011;11074;48.596;9.238;2023-11-21T07:41:18;7.90;;;3.22;;
21822;SDS011;11074;48.596;9.238;2023-11-21T07:43:44;6.85;;;3.42;;
21822;SDS011;11074;48.596;9.238;2023-11-21T07:46:11;5.90;;;2.78;;
21822;SDS011;11074;48.596;9.238;2023-11-21T07:48:38;6.25;;;2.70;;
21822;SDS011;11074;48.596;9.238;2023-11-21T07:51:06;5.75;;;2.20;;
21822;SDS011;11074;48.596;9.238;2023-11-21T07:53:32;5.63;;;2.10;;
21822;SDS011;11074;48.596;9.238;2023-11-21T07:55:58;4.03;;;1.98;;
21822;SDS011;11074;48.596;9.238;2023-11-21T07:58:29;3.30;;;1.80;;
21822;SDS011;11074;48.596;9.238;2023-11-21T08:00:58;5.65;;;1.90;;
21822;SDS011;11074;48.596;9.238;2023-11-21T08:03:25;3.90;;;1.65;;
21822;SDS011;11074;48.596;9.238;2023-11-21T08:05:57;6.03;;;2.08;;
21822;SDS011;11074;48.596;9.238;2023-11-21T08:08:24;3.55;;;2.08;;
21822;SDS011;11074;48.596;9.238;2023-11-21T08:10:50;3.85;;;2.42;;
21822;SDS011;11074;48.596;9.238;2023-11-21T08:13:25;4.75;;;2.00;;
21822;SDS011;11074;48.596;9.238;2023-11-21T08:15:57;4.20;;;2.00;;
21822;SDS011;11074;48.596;9.238;2023-11-21T08:18:30;4.57;;;2.67;;
21822;SDS011;11074;48.596;9.238;2023-11-21T08:20:56;6.57;;;2.85;;
21822;SDS011;11074;48.596;9.238;2023-11-21T08:23:22;4.28;;;2.58;;
21822;SDS011;11074;48.596;9.238;2023-11-21T08:25:51;4.13;;;2.45;;
21822;SDS011;11074;48.596;9.238;2023-11-21T08:28:18;4.88;;;2.42;;
21822;SDS011;11074;48.596;9.238;2023-11-21T08:30:44;4.47;;;2.10;;
21822;SDS011;11074;48.596;9.238;2023-11-21T08:33:10;4.13;;;2.35;;
21822;SDS011;11074;48.596;9.238;2023-11-21T08:35:37;3.53;;;2.38;;
21822;SDS011;11074;48.596;9.238;2023-11-21T08:38:03;4.82;;;2.55;;
21822;SDS011;11074;48.596;9.238;2023-11-21T08:40:29;6.00;;;2.90;;
21822;SDS011;11074;48.596;9.238;2023-11-21T08:42:55;4.28;;;2.67;;
21822;SDS011;11074;48.596;9.238;2023-11-21T08:45:23;3.30;;;2.20;;
21822;SDS011;11074;48.596;9.238;2023-11-21T08:47:51;2.65;;;1.95;;
21822;SDS011;11074;48.596;9.238;2023-11-21T08:50:17;3.70;;;2.20;;
21822;SDS011;11074;48.596;9.238;2023-11-21T08:52:43;6.35;;;1.90;;
21822;SDS011;11074;48.596;9.238;2023-11-21T08:55:11;4.13;;;2.10;;
21822;SDS011;11074;48.596;9.238;2023-11-21T08:57:40;2.60;;;1.90;;
21822;SDS011;11074;48.596;9.238;2023-11-21T09:00:08;3.45;;;1.90;;
21822;SDS011;11074;48.596;9.238;2023-11-21T09:02:42;7.35;;;1.73;;
21822;SDS011;11074;48.596;9.238;2023-11-21T09:05:09;5.65;;;1.90;;
21822;SDS011;11074;48.596;9.238;2023-11-21T09:07:38;4.95;;;2.03;;
21822;SDS011;11074;48.596;9.238;2023-11-21T09:10:06;3.65;;;1.77;;
21822;SDS011;11074;48.596;9.238;2023-11-21T09:12:34;2.35;;;1.38;;
21822;SDS011;11074;48.596;9.238;2023-11-21T09:15:02;5.15;;;1.92;;
21822;SDS011;11074;48.596;9.238;2023-11-21T09:17:29;5.05;;;2.30;;
21822;SDS011;11074;48.596;9.238;2023-11-21T09:19:55;3.55;;;1.20;;
21822;SDS011;11074;48.596;9.238;2023-11-21T09:22:22;3.42;;;1.65;;
21822;SDS011;11074;48.596;9.238;2023-11-21T09:24:49;5.75;;;1.48;;
21822;SDS011;11074;48.596;9.238;2023-11-21T09:27:16;4.35;;;1.20;;
21822;SDS011;11074;48.596;9.238;2023-11-21T09:29:42;3.72;;;1.45;;
21822;SDS011;11074;48.596;9.238;2023-11-21T09:32:08;2.85;;;0.77;;
21822;SDS011;11074;48.596;9.238;2023-11-21T09:34:37;3.75;;;1.13;;
21822;SDS011;11074;48.596;9.238;2023-11-21T09:37:04;3.67;;;0.80;;
21822;SDS011;11074;48.596;9.238;2023-11-21T09:39:31;2.63;;;0.80;;
21822;SDS011;11074;48.596;9.238;2023-11-21T09:47:26;2.53;;;0.77;;
21822;SDS011;11074;48.596;9.238;2023-11-21T09:49:52;2.25;;;1.00;;
21822;SDS011;11074;48.596;9.238;2023-11-21T09:52:25;2.97;;;1.00;;
21822;SDS011;11074;48.596;9.238;2023-11-21T09:54:53;1.35;;;0.88;;
21822;SDS011;11074;48.596;9.238;2023-11-21T09:57:22;3.10;;;1.25;;
21822;SDS011;11074;48.596;9.238;2023-11-21T09:59:50;3.70;;;0.98;;
21822;SDS011;11074;48.596;9.238;2023-11-21T10:02:25;2.58;;;0.95;;
21822;SDS011;11074;48.596;9.238;2023-11-21T10:04:58;3.00;;;0.98;;
21822;SDS011;11074;48.596;9.238;2023-11-21T10:07:25;2.85;;;1.50;;
21822;SDS011;11074;48.596;9.238;2023-11-21T10:09:53;3.38;;;1.40;;
21822;SDS011;11074;48.596;9.238;2023-11-21T10:12:21;1.83;;;1.00;;
21822;SDS011;11074;48.596;9.238;2023-11-21T10:14:49;2.40;;;1.05;;
21822;SDS011;11074;48.596;9.238;2023-11-21T10:17:17;3.28;;;0.90;;
21822;SDS011;11074;48.596;9.238;2023-11-21T10:19:46;1.98;;;0.88;;
21822;SDS011;11074;48.596;9.238;2023-11-21T10:22:15;1.92;;;1.00;;
21822;SDS011;11074;48.596;9.238;2023-11-21T10:24:42;3.03;;;0.85;;
21822;SDS011;11074;48.596;9.238;2023-11-21T10:27:08;3.38;;;1.20;;
21822;SDS011;11074;48.596;9.238;2023-11-21T10:29:34;3.70;;;1.25;;
21822;SDS011;11074;48.596;9.238;2023-11-21T10:32:01;2.85;;;1.10;;
21822;SDS011;11074;48.596;9.238;2023-11-21T10:34:28;4.60;;;1.10;;
21822;SDS011;11074;48.596;9.238;2023-11-21T10:36:54;3.45;;;1.10;;
21822;SDS011;11074;48.596;9.238;2023-11-21T10:39:23;4.40;;;1.20;;
21822;SDS011;11074;48.596;9.238;2023-11-21T10:41:53;3.60;;;1.50;;
21822;SDS011;11074;48.596;9.238;2023-11-21T10:44:20;3.55;;;1.30;;
21822;SDS011;11074;48.596;9.238;2023-11-21T10:46:51;4.60;;;1.30;;
21822;SDS011;11074;48.596;9.238;2023-11-21T10:49:21;2.80;;;1.30;;
21822;SDS011;11074;48.596;9.238;2023-11-21T10:51:53;3.28;;;0.90;;
21822;SDS011;11074;48.596;9.238;2023-11-21T10:54:19;3.40;;;1.27;;
21822;SDS011;11074;48.596;9.238;2023-11-21T10:56:46;2.40;;;1.20;;
21822;SDS011;11074;48.596;9.238;2023-11-21T10:59:16;1.58;;;0.90;;
21822;SDS011;11074;48.596;9.238;2023-11-21T11:01:44;2.38;;;1.00;;
21822;SDS011;11074;48.596;9.238;2023-11-21T11:04:13;3.08;;;1.17;;
21822;SDS011;11074;48.596;9.238;2023-11-21T11:06:44;1.73;;;1.00;;
21822;SDS011;11074;48.596;9.238;2023-11-21T11:09:18;3.33;;;1.40;;
21822;SDS011;11074;48.596;9.238;2023-11-21T11:11:46;1.23;;;0.90;;
21822;SDS011;11074;48.596;9.238;2023-11-21T11:14:12;3.47;;;1.10;;
21822;SDS011;11074;48.596;9.238;2023-11-21T11:16:39;1.30;;;1.00;;
21822;SDS011;11074;48.596;9.238;2023-11-21T11:19:08;2.33;;;0.95;;
21822;SDS011;11074;48.596;9.238;2023-11-21T11:21:43;2.65;;;1.10;;
21822;SDS011;11074;48.596;9.238;2023-11-21T11:24:51;3.13;;;0.98;;
21822;SDS011;11074;48.596;9.238;2023-11-21T11:39:40;1.55;;;0.90;;
21822;SDS011;11074;48.596;9.238;2023-11-21T11:42:04;1.92;;;0.90;;
21822;SDS011;11074;48.596;9.238;2023-11-21T11:47:14;3.35;;;1.38;;
21822;SDS011;11074;48.596;9.238;2023-11-21T11:49:58;3.00;;;1.63;;
21822;SDS011;11074;48.596;9.238;2023-11-21T11:52:48;5.05;;;1.38;;
21822;SDS011;11074;48.596;9.238;2023-11-21T11:55:17;3.53;;;1.35;;
21822;SDS011;11074;48.596;9.238;2023-11-21T11:57:46;2.55;;;1.50;;
21822;SDS011;11074;48.596;9.238;2023-11-21T12:00:19;4.25;;;1.55;;
21822;SDS011;11074;48.596;9.238;2023-11-21T12:02:56;2.03;;;1.10;;
21822;SDS011;11074;48.596;9.238;2023-11-21T12:05:27;3.78;;;1.80;;
21822;SDS011;11074;48.596;9.238;2023-11-21T12:07:53;4.47;;;1.60;;
21822;SDS011;11074;48.596;9.238;2023-11-21T12:10:26;3.50;;;1.40;;
21822;SDS011;11074;48.596;9.238;2023-11-21T12:12:54;3.70;;;1.67;;
21822;SDS011;11074;48.596;9.238;2023-11-21T12:15:26;1.80;;;1.30;;
21822;SDS011;11074;48.596;9.238;2023-11-21T12:17:56;2.28;;;1.27;;
21822;SDS011;11074;48.596;9.238;2023-11-21T12:20:26;3.22;;;1.33;;
21822;SDS011;11074;48.596;9.238;2023-11-21T12:22:56;2.75;;;1.30;;
21822;SDS011;11074;48.596;9.238;2023-11-21T12:25:29;3.28;;;1.05;;
21822;SDS011;11074;48.596;9.238;2023-11-21T12:28:00;1.90;;;1.10;;
21822;SDS011;11074;48.596;9.238;2023-11-21T12:30:28;1.98;;;1.10;;
21822;SDS011;11074;48.596;9.238;2023-11-21T12:32:57;1.67;;;1.30;;
21822;SDS011;11074;48.596;9.238;2023-11-21T12:35:26;1.92;;;1.23;;
21822;SDS011;11074;48.596;9.238;2023-11-21T12:37:54;2.67;;;1.38;;
21822;SDS011;11074;48.596;9.238;2023-11-21T12:40:23;2.28;;;1.52;;
21822;SDS011;11074;48.596;9.238;2023-11-21T12:42:53;2.80;;;1.63;;
21822;SDS011;11074;48.596;9.238;2023-11-21T12:45:23;2.60;;;1.77;;
21822;SDS011;11074;48.596;9.238;2023-11-21T12:47:50;2.75;;;1.83;;
21822;SDS011;11074;48.596;9.238;2023-11-21T12:50:32;3.15;;;1.70;;
21822;SDS011;11074;48.596;9.238;2023-11-21T12:53:00;4.45;;;2.70;;
21822;SDS011;11074;48.596;9.238;2023-11-21T12:55:33;4.55;;;2.40;;
21822;SDS011;11074;48.596;9.238;2023-11-21T12:58:03;3.80;;;2.50;;
21822;SDS011;11074;48.596;9.238;2023-11-21T13:00:35;4.53;;;2.60;;
21822;SDS011;11074;48.596;9.238;2023-11-21T13:03:04;6.97;;;3.30;;
21822;SDS011;11074;48.596;9.238;2023-11-21T13:05:38;8.98;;;3.03;;
21822;SDS011;11074;48.596;9.238;2023-11-21T13:08:09;5.13;;;2.33;;
21822;SDS011;11074;48.596;9.238;2023-11-21T13:10:38;4.35;;;2.13;;
21822;SDS011;11074;48.596;9.238;2023-11-21T13:13:09;6.65;;;3.20;;
21822;SDS011;11074;48.596;9.238;2023-11-21T13:18:25;6.43;;;3.40;;
21822;SDS011;11074;48.596;9.238;2023-11-21T13:20:53;12.15;;;6.50;;
21822;SDS011;11074;48.596;9.238;2023-11-21T13:23:20;7.45;;;4.15;;
21822;SDS011;11074;48.596;9.238;2023-11-21T13:25:47;4.68;;;2.60;;
21822;SDS011;11074;48.596;9.238;2023-11-21T13:28:14;3.65;;;2.20;;
21822;SDS011;11074;48.596;9.238;2023-11-21T13:30:47;2.88;;;1.50;;
21822;SDS011;11074;48.596;9.238;2023-11-21T13:33:13;2.67;;;1.52;;
21822;SDS011;11074;48.596;9.238;2023-11-21T13:35:43;3.05;;;1.60;;
21822;SDS011;11074;48.596;9.238;2023-11-21T13:38:16;2.67;;;1.98;;
21822;SDS011;11074;48.596;9.238;2023-11-21T13:40:51;3.53;;;1.73;;
21822;SDS011;11074;48.596;9.238;2023-11-21T13:43:22;2.88;;;1.60;;
21822;SDS011;11074;48.596;9.238;2023-11-21T13:45:51;2.22;;;1.60;;
21822;SDS011;11074;48.596;9.238;2023-11-21T13:48:37;1.83;;;1.48;;
21822;SDS011;11074;48.596;9.238;2023-11-21T13:51:05;3.20;;;1.88;;
21822;SDS011;11074;48.596;9.238;2023-11-21T13:53:42;3.75;;;1.70;;
21822;SDS011;11074;48.596;9.238;2023-11-21T13:56:10;3.13;;;1.60;;
21822;SDS011;11074;48.596;9.238;2023-11-21T13:58:37;2.03;;;1.52;;
21822;SDS011;11074;48.596;9.238;2023-11-21T14:01:16;3.05;;;1.38;;
21822;SDS011;11074;48.596;9.238;2023-11-21T14:03:58;3.28;;;1.70;;
21822;SDS011;11074;48.596;9.238;2023-11-21T14:06:48;2.75;;;1.90;;
21822;SDS011;11074;48.596;9.238;2023-11-21T14:09:19;1.90;;;1.48;;
21822;SDS011;11074;48.596;9.238;2023-11-21T14:11:54;3.83;;;1.88;;
21822;SDS011;11074;48.596;9.238;2023-11-21T14:14:22;2.58;;;1.98;;
21822;SDS011;11074;48.596;9.238;2023-11-21T14:16:51;3.63;;;2.22;;
21822;SDS011;11074;48.596;9.238;2023-11-21T14:19:20;5.40;;;3.13;;
21822;SDS011;11074;48.596;9.238;2023-11-21T14:21:46;5.25;;;3.90;;
21822;SDS011;11074;48.596;9.238;2023-11-21T14:24:14;7.13;;;5.13;;
21822;SDS011;11074;48.596;9.238;2023-11-21T14:26:43;9.30;;;5.25;;
21822;SDS011;11074;48.596;9.238;2023-11-21T14:29:13;7.18;;;5.70;;
21822;SDS011;11074;48.596;9.238;2023-11-21T14:31:45;10.55;;;5.45;;
21822;SDS011;11074;48.596;9.238;2023-11-21T14:34:11;8.63;;;4.55;;
21822;SDS011;11074;48.596;9.238;2023-11-21T14:36:38;5.57;;;3.97;;
21822;SDS011;11074;48.596;9.238;2023-11-21T14:39:05;5.68;;;2.80;;
21822;SDS011;11074;48.596;9.238;2023-11-21T14:41:46;4.25;;;2.80;;
21822;SDS011;11074;48.596;9.238;2023-11-21T14:44:12;3.05;;;2.25;;
21822;SDS011;11074;48.596;9.238;2023-11-21T14:46:40;3.67;;;2.55;;
21822;SDS011;11074;48.596;9.238;2023-11-21T14:49:09;2.13;;;1.58;;
21822;SDS011;11074;48.596;9.238;2023-11-21T14:51:52;2.10;;;1.38;;
21822;SDS011;11074;48.596;9.238;2023-11-21T14:54:28;2.22;;;1.25;;
21822;SDS011;11074;48.596;9.238;2023-11-21T14:57:05;2.40;;;1.20;;
21822;SDS011;11074;48.596;9.238;2023-11-21T14:59:36;2.95;;;1.40;;
21822;SDS011;11074;48.596;9.238;2023-11-21T15:02:09;1.55;;;1.00;;
21822;SDS011;11074;48.596;9.238;2023-11-21T15:07:09;2.08;;;1.02;;
21822;SDS011;11074;48.596;9.238;2023-11-21T15:09:37;1.80;;;1.00;;
21822;SDS011;11074;48.596;9.238;2023-11-21T15:12:07;1.40;;;1.05;;
21822;SDS011;11074;48.596;9.238;2023-11-21T15:17:12;2.75;;;1.20;;
21822;SDS011;11074;48.596;9.238;2023-11-21T15:19:47;2.97;;;1.20;;
21822;SDS011;11074;48.596;9.238;2023-11-21T15:22:13;6.20;;;4.07;;